Guedel 3 — FGG8104 — position and weather

sailwx.info

Track history (hours):
 
Tides and Currents Weather Stations Pressure Air Temp Water Temp Dewpoint Dewpoint Depression Visibility Wind Speed Wind Dir Waves Ship Positions

Guedel 3

Last reported at 2018-Jun-21 13:55 UTC. Time now 2018-Jun-21 16:25 UTC.
Position N 47°38' W 002°46'.

Length 40 m; draft 2.2 m.

MMSI: 227051650.

Date/timePositionNaut miles runAvg speedWind from/ knotsBaromVisibWave heightAir tempDewpointWater temp
2018-Jun-21 13:55N 47°38' W 002°46'2 3.8
2018-Jun-21 13:30N 47°37' W 002°47'4 7.4
2018-Jun-21 13:00N 47°35' W 002°52'4 8.2
2018-Jun-21 12:30N 47°32' W 002°55'4 8.9
2018-Jun-21 12:00N 47°28' W 002°59'5 9.1
2018-Jun-21 11:30N 47°25' W 003°04'5 9.1
2018-Jun-21 11:00N 47°21' W 003°08'1 0.1
2018-Jun-20 19:52N 47°21' W 003°09'0 1.3
2018-Jun-20 19:30N 47°21' W 003°09'0 0.0
2018-Jun-20 19:00N 47°21' W 003°09'0 0.0
2018-Jun-20 18:30N 47°21' W 003°09'0 1.0
2018-Jun-20 18:00N 47°21' W 003°08'4 8.9
2018-Jun-20 17:30N 47°25' W 003°05'4 8.0
2018-Jun-20 17:01N 47°28' W 003°00'4 8.7
2018-Jun-20 16:30N 47°31' W 002°56'5 9.9
2018-Jun-20 16:00N 47°35' W 002°52'4 7.7
2018-Jun-20 15:30N 47°37' W 002°47'2 2.8
2018-Jun-20 14:58N 47°38' W 002°46'0 0.0
2018-Jun-20 14:30N 47°38' W 002°46'0 0.0
2018-Jun-20 13:59N 47°38' W 002°46'0 0.0
2018-Jun-20 13:30N 47°38' W 002°46'0 0.0
2018-Jun-20 13:00N 47°38' W 002°46'0 0.0
2018-Jun-20 12:30N 47°38' W 002°46'0 0.0
2018-Jun-20 12:00N 47°38' W 002°46'0 0.0
2018-Jun-20 11:30N 47°38' W 002°46'3 5.6
2018-Jun-20 11:00N 47°37' W 002°49'4 8.7
2018-Jun-20 10:30N 47°34' W 002°54'5 9.7
2018-Jun-20 10:00N 47°30' W 002°57'5 9.9
2018-Jun-20 09:30N 47°26' W 003°03'5 9.5
2018-Jun-20 09:00N 47°23' W 003°07'2 0.2
2018-Jun-19 18:13N 47°21' W 003°09'1 2.5
2018-Jun-19 18:00N 47°21' W 003°09'0 0.2
2018-Jun-19 17:30N 47°21' W 003°09'0 0.0
2018-Jun-19 17:00N 47°21' W 003°09'3 5.2
2018-Jun-19 16:30N 47°23' W 003°06'4 8.1
2018-Jun-19 16:00N 47°26' W 003°03'4 8.1
2018-Jun-19 15:30N 47°29' W 002°58'4 8.9
2018-Jun-19 15:00N 47°33' W 002°55'510.1
2018-Jun-19 14:30N 47°37' W 002°50'3 5.9
2018-Jun-19 14:00N 47°38' W 002°46'1 1.2
2018-Jun-19 13:30N 47°38' W 002°46'0 0.0
2018-Jun-19 13:00N 47°38' W 002°46'0 0.0
2018-Jun-19 12:30N 47°38' W 002°46'0 0.0
2018-Jun-19 12:00N 47°38' W 002°46'0 0.0
2018-Jun-19 11:30N 47°38' W 002°46'0 0.0
2018-Jun-19 11:00N 47°38' W 002°46'0 0.0
2018-Jun-19 10:30N 47°38' W 002°46'0 0.0
2018-Jun-19 10:00N 47°38' W 002°46'0 0.0
2018-Jun-19 09:30N 47°38' W 002°46'1 2.2
2018-Jun-19 09:00N 47°38' W 002°47'4 8.4
2018-Jun-19 08:30N 47°35' W 002°52'510.1
2018-Jun-19 08:00N 47°31' W 002°56'5 9.7
2018-Jun-19 07:30N 47°27' W 003°01'5 9.7
2018-Jun-19 07:00N 47°24' W 003°05'4 0.3
2018-Jun-18 17:12N 47°21' W 003°09'1 2.5
2018-Jun-18 17:00N 47°21' W 003°09'0 0.0
2018-Jun-18 16:30N 47°21' W 003°09'0 0.0
2018-Jun-18 16:00N 47°21' W 003°09'0 0.0
2018-Jun-18 15:30N 47°21' W 003°09'0 0.0
2018-Jun-18 15:00N 47°21' W 003°09'0 0.0
2018-Jun-18 14:28N 47°21' W 003°09'0 0.9
2018-Jun-18 14:01N 47°22' W 003°08'4 7.9
2018-Jun-18 13:30N 47°25' W 003°05'4 8.9
2018-Jun-18 13:00N 47°28' W 003°00'5 9.4
2018-Jun-18 12:30N 47°31' W 002°55'611.5
2018-Jun-18 12:00N 47°36' W 002°51'4 8.0
2018-Jun-18 11:30N 47°38' W 002°46'  
2018-Jun-15 08:38N 47°38' W 002°46'0 0.0
2018-Jun-15 08:30N 47°38' W 002°46'0 0.0
2018-Jun-15 08:01N 47°38' W 002°46'0 0.0
2018-Jun-15 07:31N 47°38' W 002°46'2 3.0
2018-Jun-15 07:01N 47°37' W 002°47'4 8.2
2018-Jun-15 06:30N 47°35' W 002°52'5 9.3
2018-Jun-15 06:01N 47°31' W 002°56'5 9.4
2018-Jun-15 05:31N 47°28' W 003°00'5 9.2
2018-Jun-15 05:01N 47°24' W 003°05'4 8.6
2018-Jun-15 04:31N 47°21' W 003°09'0 0.0
2018-Jun-14 13:45N 47°21' W 003°09'1 2.4
2018-Jun-14 13:30N 47°21' W 003°09'0 0.1
2018-Jun-14 13:00N 47°21' W 003°09'0 0.0
2018-Jun-14 12:30N 47°21' W 003°09'1 1.2
2018-Jun-14 12:00N 47°22' W 003°08'4 8.0
2018-Jun-14 11:31N 47°25' W 003°04'4 7.4
2018-Jun-14 11:00N 47°27' W 003°01'4 8.2
2018-Jun-14 10:30N 47°30' W 002°56'510.9
2018-Jun-14 10:00N 47°35' W 002°52'4 8.6
2018-Jun-14 09:30N 47°37' W 002°47'1 0.1
2018-Jun-13 19:55N 47°38' W 002°46'2 4.6
2018-Jun-13 19:30N 47°37' W 002°48'4 8.0
2018-Jun-13 19:00N 47°35' W 002°53'3 6.7
2018-Jun-13 18:30N 47°32' W 002°55'5 9.2
2018-Jun-13 18:00N 47°28' W 002°59'5 9.2
2018-Jun-13 17:30N 47°25' W 003°04'5 9.0
2018-Jun-13 17:00N 47°22' W 003°08'1 0.3
2018-Jun-13 13:11N 47°21' W 003°09'0 0.9
2018-Jun-13 12:57N 47°21' W 003°09'0 0.6
2018-Jun-13 12:30N 47°21' W 003°09'0 0.4
2018-Jun-13 12:00N 47°21' W 003°09'4 8.1
2018-Jun-13 11:30N 47°25' W 003°05'4 7.4
2018-Jun-13 11:00N 47°27' W 003°01'4 8.4
2018-Jun-13 10:30N 47°30' W 002°57'510.2
2018-Jun-13 10:00N 47°35' W 002°53'4 9.0
2018-Jun-13 09:30N 47°37' W 002°48'2 0.1
2018-Jun-12 20:17N 47°38' W 002°46'0 0.1
2018-Jun-12 20:00N 47°38' W 002°46'2 3.1
2018-Jun-12 19:30N 47°37' W 002°47'4 7.4
2018-Jun-12 19:00N 47°36' W 002°52'3 6.5
2018-Jun-12 18:30N 47°33' W 002°55'4 7.8
2018-Jun-12 18:00N 47°30' W 002°58'4 8.8
2018-Jun-12 17:30N 47°26' W 003°02'4 8.4
2018-Jun-12 17:00N 47°23' W 003°06'3 0.7
2018-Jun-12 12:37N 47°21' W 003°09'0 3.1
2018-Jun-12 12:30N 47°21' W 003°09'1 1.1
2018-Jun-12 12:00N 47°21' W 003°09'3 5.7
2018-Jun-12 11:30N 47°24' W 003°06'4 7.9
2018-Jun-12 11:00N 47°27' W 003°02'4 8.3
2018-Jun-12 10:30N 47°29' W 002°58'5 9.1
2018-Jun-12 10:00N 47°34' W 002°55'5 9.8
2018-Jun-12 09:30N 47°36' W 002°49'3 5.6
2018-Jun-12 09:00N 47°38' W 002°46'0 0.1
2018-Jun-12 02:59N 47°38' W 002°46'1 2.6
2018-Jun-12 02:30N 47°37' W 002°47'4 8.9
2018-Jun-12 02:00N 47°35' W 002°52'510.3
2018-Jun-12 01:30N 47°30' W 002°56'510.3
2018-Jun-12 01:01N 47°27' W 003°01'5 9.7
2018-Jun-12 00:31N 47°23' W 003°06'  
Track history (hours):
 
Tides and Currents Weather Stations Pressure Air Temp Water Temp Dewpoint Dewpoint Depression Visibility Wind Speed Wind Dir Waves Ship Positions

Guedel 3

Last reported at 2018-Jun-21 13:55 UTC. Time now 2018-Jun-21 16:25 UTC.
Position N 47°38' W 002°46'.

Length 40 m; draft 2.2 m.

MMSI: 227051650.

Date/timePositionNaut miles runAvg speedWind from/ knotsBaromVisibWave heightAir tempDewpointWater temp
2018-Jun-21 13:55N 47°38' W 002°46'2 3.8
2018-Jun-21 13:30N 47°37' W 002°47'4 7.4
2018-Jun-21 13:00N 47°35' W 002°52'4 8.2
2018-Jun-21 12:30N 47°32' W 002°55'4 8.9
2018-Jun-21 12:00N 47°28' W 002°59'5 9.1
2018-Jun-21 11:30N 47°25' W 003°04'5 9.1
2018-Jun-21 11:00N 47°21' W 003°08'1 0.1
2018-Jun-20 19:52N 47°21' W 003°09'0 1.3
2018-Jun-20 19:30N 47°21' W 003°09'0 0.0
2018-Jun-20 19:00N 47°21' W 003°09'0 0.0
2018-Jun-20 18:30N 47°21' W 003°09'0 1.0
2018-Jun-20 18:00N 47°21' W 003°08'4 8.9
2018-Jun-20 17:30N 47°25' W 003°05'4 8.0
2018-Jun-20 17:01N 47°28' W 003°00'4 8.7
2018-Jun-20 16:30N 47°31' W 002°56'5 9.9
2018-Jun-20 16:00N 47°35' W 002°52'4 7.7
2018-Jun-20 15:30N 47°37' W 002°47'2 2.8
2018-Jun-20 14:58N 47°38' W 002°46'0 0.0
2018-Jun-20 14:30N 47°38' W 002°46'0 0.0
2018-Jun-20 13:59N 47°38' W 002°46'0 0.0
2018-Jun-20 13:30N 47°38' W 002°46'0 0.0
2018-Jun-20 13:00N 47°38' W 002°46'0 0.0
2018-Jun-20 12:30N 47°38' W 002°46'0 0.0
2018-Jun-20 12:00N 47°38' W 002°46'0 0.0
2018-Jun-20 11:30N 47°38' W 002°46'3 5.6
2018-Jun-20 11:00N 47°37' W 002°49'4 8.7
2018-Jun-20 10:30N 47°34' W 002°54'5 9.7
2018-Jun-20 10:00N 47°30' W 002°57'5 9.9
2018-Jun-20 09:30N 47°26' W 003°03'5 9.5
2018-Jun-20 09:00N 47°23' W 003°07'2 0.2
2018-Jun-19 18:13N 47°21' W 003°09'1 2.5
2018-Jun-19 18:00N 47°21' W 003°09'0 0.2
2018-Jun-19 17:30N 47°21' W 003°09'0 0.0
2018-Jun-19 17:00N 47°21' W 003°09'3 5.2
2018-Jun-19 16:30N 47°23' W 003°06'4 8.1
2018-Jun-19 16:00N 47°26' W 003°03'4 8.1
2018-Jun-19 15:30N 47°29' W 002°58'4 8.9
2018-Jun-19 15:00N 47°33' W 002°55'510.1
2018-Jun-19 14:30N 47°37' W 002°50'3 5.9
2018-Jun-19 14:00N 47°38' W 002°46'1 1.2
2018-Jun-19 13:30N 47°38' W 002°46'0 0.0
2018-Jun-19 13:00N 47°38' W 002°46'0 0.0
2018-Jun-19 12:30N 47°38' W 002°46'0 0.0
2018-Jun-19 12:00N 47°38' W 002°46'0 0.0
2018-Jun-19 11:30N 47°38' W 002°46'0 0.0
2018-Jun-19 11:00N 47°38' W 002°46'0 0.0
2018-Jun-19 10:30N 47°38' W 002°46'0 0.0
2018-Jun-19 10:00N 47°38' W 002°46'0 0.0
2018-Jun-19 09:30N 47°38' W 002°46'1 2.2
2018-Jun-19 09:00N 47°38' W 002°47'4 8.4
2018-Jun-19 08:30N 47°35' W 002°52'510.1
2018-Jun-19 08:00N 47°31' W 002°56'5 9.7
2018-Jun-19 07:30N 47°27' W 003°01'5 9.7
2018-Jun-19 07:00N 47°24' W 003°05'4 0.3
2018-Jun-18 17:12N 47°21' W 003°09'1 2.5
2018-Jun-18 17:00N 47°21' W 003°09'0 0.0
2018-Jun-18 16:30N 47°21' W 003°09'0 0.0
2018-Jun-18 16:00N 47°21' W 003°09'0 0.0
2018-Jun-18 15:30N 47°21' W 003°09'0 0.0
2018-Jun-18 15:00N 47°21' W 003°09'0 0.0
2018-Jun-18 14:28N 47°21' W 003°09'0 0.9
2018-Jun-18 14:01N 47°22' W 003°08'4 7.9
2018-Jun-18 13:30N 47°25' W 003°05'4 8.9
2018-Jun-18 13:00N 47°28' W 003°00'5 9.4
2018-Jun-18 12:30N 47°31' W 002°55'611.5
2018-Jun-18 12:00N 47°36' W 002°51'4 8.0
2018-Jun-18 11:30N 47°38' W 002°46'  
2018-Jun-15 08:38N 47°38' W 002°46'0 0.0
2018-Jun-15 08:30N 47°38' W 002°46'0 0.0
2018-Jun-15 08:01N 47°38' W 002°46'0 0.0
2018-Jun-15 07:31N 47°38' W 002°46'2 3.0
2018-Jun-15 07:01N 47°37' W 002°47'4 8.2
2018-Jun-15 06:30N 47°35' W 002°52'5 9.3
2018-Jun-15 06:01N 47°31' W 002°56'5 9.4
2018-Jun-15 05:31N 47°28' W 003°00'5 9.2
2018-Jun-15 05:01N 47°24' W 003°05'4 8.6
2018-Jun-15 04:31N 47°21' W 003°09'0 0.0
2018-Jun-14 13:45N 47°21' W 003°09'1 2.4
2018-Jun-14 13:30N 47°21' W 003°09'0 0.1
2018-Jun-14 13:00N 47°21' W 003°09'0 0.0
2018-Jun-14 12:30N 47°21' W 003°09'1 1.2
2018-Jun-14 12:00N 47°22' W 003°08'4 8.0
2018-Jun-14 11:31N 47°25' W 003°04'4 7.4
2018-Jun-14 11:00N 47°27' W 003°01'4 8.2
2018-Jun-14 10:30N 47°30' W 002°56'510.9
2018-Jun-14 10:00N 47°35' W 002°52'4 8.6
2018-Jun-14 09:30N 47°37' W 002°47'1 0.1
2018-Jun-13 19:55N 47°38' W 002°46'2 4.6
2018-Jun-13 19:30N 47°37' W 002°48'4 8.0
2018-Jun-13 19:00N 47°35' W 002°53'3 6.7
2018-Jun-13 18:30N 47°32' W 002°55'5 9.2
2018-Jun-13 18:00N 47°28' W 002°59'5 9.2
2018-Jun-13 17:30N 47°25' W 003°04'5 9.0
2018-Jun-13 17:00N 47°22' W 003°08'1 0.3
2018-Jun-13 13:11N 47°21' W 003°09'0 0.9
2018-Jun-13 12:57N 47°21' W 003°09'0 0.6
2018-Jun-13 12:30N 47°21' W 003°09'0 0.4
2018-Jun-13 12:00N 47°21' W 003°09'4 8.1
2018-Jun-13 11:30N 47°25' W 003°05'4 7.4
2018-Jun-13 11:00N 47°27' W 003°01'4 8.4
2018-Jun-13 10:30N 47°30' W 002°57'510.2
2018-Jun-13 10:00N 47°35' W 002°53'4 9.0
2018-Jun-13 09:30N 47°37' W 002°48'2 0.1
2018-Jun-12 20:17N 47°38' W 002°46'0 0.1
2018-Jun-12 20:00N 47°38' W 002°46'2 3.1
2018-Jun-12 19:30N 47°37' W 002°47'4 7.4
2018-Jun-12 19:00N 47°36' W 002°52'3 6.5
2018-Jun-12 18:30N 47°33' W 002°55'4 7.8
2018-Jun-12 18:00N 47°30' W 002°58'4 8.8
2018-Jun-12 17:30N 47°26' W 003°02'4 8.4
2018-Jun-12 17:00N 47°23' W 003°06'3 0.7
2018-Jun-12 12:37N 47°21' W 003°09'0 3.1
2018-Jun-12 12:30N 47°21' W 003°09'1 1.1
2018-Jun-12 12:00N 47°21' W 003°09'3 5.7
2018-Jun-12 11:30N 47°24' W 003°06'4 7.9
2018-Jun-12 11:00N 47°27' W 003°02'4 8.3
2018-Jun-12 10:30N 47°29' W 002°58'5 9.1
2018-Jun-12 10:00N 47°34' W 002°55'5 9.8
2018-Jun-12 09:30N 47°36' W 002°49'3 5.6
2018-Jun-12 09:00N 47°38' W 002°46'0 0.1
2018-Jun-12 02:59N 47°38' W 002°46'1 2.6
2018-Jun-12 02:30N 47°37' W 002°47'4 8.9
2018-Jun-12 02:00N 47°35' W 002°52'510.3
2018-Jun-12 01:30N 47°30' W 002°56'510.3
2018-Jun-12 01:01N 47°27' W 003°01'5 9.7
2018-Jun-12 00:31N 47°23' W 003°06'  

Dump ship's entire track history